createdAt,value
2022-12-23T10:21:47.812Z,58.35
2022-12-23T10:23:30.536Z,48.13
2022-12-23T10:25:04.612Z,47.72
2022-12-23T10:26:48.901Z,51.10
2022-12-23T10:28:21.084Z,50.53
2022-12-23T10:29:53.263Z,46.45
2022-12-23T10:31:41.369Z,41.28
2022-12-23T10:33:20.723Z,49.90
2022-12-23T10:35:04.884Z,51.95
2022-12-23T10:36:48.846Z,104.80
2022-12-23T10:38:39.798Z,68.68
2022-12-23T10:40:21.596Z,63.20
2022-12-23T10:42:20.479Z,64.30
2022-12-23T10:44:13.198Z,67.80
2022-12-23T10:46:04.014Z,43.67
2022-12-23T10:48:23.866Z,46.70
2022-12-23T10:50:24.100Z,34.28
2022-12-23T10:52:09.407Z,124.22
2022-12-23T10:54:13.009Z,71.05
2022-12-23T10:55:45.645Z,108.35
2022-12-23T10:57:19.927Z,155.65
2022-12-23T10:58:56.802Z,84.65
2022-12-23T11:00:29.370Z,90.07
2022-12-23T11:02:11.104Z,165.23
2022-12-23T11:04:05.850Z,141.57
2022-12-23T11:05:38.301Z,142.52
2022-12-23T11:09:21.993Z,149.55
2022-12-23T11:10:54.947Z,120.72
2022-12-23T11:14:40.173Z,94.05
2022-12-23T11:16:25.762Z,108.70
2022-12-23T11:18:11.593Z,63.58
2022-12-23T11:19:45.197Z,61.92
2022-12-23T11:21:17.987Z,199.02
2022-12-23T11:22:55.948Z,128.65
2022-12-23T11:24:39.741Z,145.50
2022-12-23T11:26:20.669Z,255.80
2022-12-23T11:27:59.041Z,164.00
2022-12-23T11:29:37.488Z,217.88
2022-12-23T11:31:14.576Z,169.65
2022-12-23T11:32:47.127Z,282.23
2022-12-23T11:34:22.609Z,223.05
2022-12-23T11:36:13.151Z,302.45
2022-12-23T11:37:45.319Z,287.13
2022-12-23T11:39:26.790Z,335.83
2022-12-23T11:40:59.487Z,226.68
2022-12-23T11:42:37.874Z,317.83
2022-12-23T11:44:18.836Z,301.20
2022-12-23T11:46:16.411Z,337.17
2022-12-23T11:47:49.496Z,108.00
2022-12-23T11:49:23.363Z,166.13
2022-12-23T11:51:01.782Z,261.15
2022-12-23T11:52:34.278Z,327.02
2022-12-23T11:54:07.188Z,244.15
2022-12-23T11:56:05.070Z,142.88
2022-12-23T11:57:44.809Z,190.38
2022-12-23T11:59:31.839Z,181.75
2022-12-23T12:01:15.072Z,154.90
2022-12-23T12:02:51.140Z,87.03
2022-12-23T12:04:25.795Z,114.75
2022-12-23T12:06:01.303Z,89.30
2022-12-23T12:07:34.153Z,93.13
2022-12-23T12:09:07.144Z,189.57
2022-12-23T12:10:42.321Z,96.40
2022-12-23T12:12:20.627Z,77.80
2022-12-23T12:14:02.745Z,80.82
2022-12-23T12:15:57.711Z,110.45
2022-12-23T12:17:41.451Z,72.43
2022-12-23T12:19:26.113Z,141.70
2022-12-23T12:21:15.681Z,150.55
2022-12-23T12:23:00.028Z,138.38
2022-12-23T12:24:41.833Z,102.50
2022-12-23T12:26:35.034Z,71.80
2022-12-23T12:28:18.004Z,163.32
2022-12-23T12:30:04.571Z,89.80
2022-12-23T12:31:44.136Z,72.47
2022-12-23T12:33:31.021Z,70.63
2022-12-23T12:35:10.533Z,65.75
2022-12-23T12:37:02.479Z,54.75
2022-12-23T12:38:39.311Z,57.42
2022-12-23T12:40:18.535Z,59.67
2022-12-23T12:42:05.522Z,58.38
2022-12-23T12:43:42.659Z,57.28
2022-12-23T12:45:22.573Z,58.60
2022-12-23T12:47:44.429Z,57.45
2022-12-23T12:49:20.512Z,67.22
2022-12-23T12:51:01.018Z,72.28
2022-12-23T12:52:39.972Z,66.82
2022-12-23T12:54:33.845Z,73.75
2022-12-23T12:59:40.086Z,66.68
2022-12-23T13:01:18.014Z,69.70
2022-12-23T13:02:56.371Z,52.70
2022-12-23T13:05:17.667Z,69.97
2022-12-23T13:07:01.837Z,58.80
2022-12-23T13:08:37.942Z,51.65
2022-12-23T13:10:34.246Z,44.80
2022-12-23T13:12:36.033Z,46.38
2022-12-23T13:14:18.436Z,70.78
2022-12-23T13:16:00.129Z,64.17
2022-12-23T13:17:53.393Z,84.15
2022-12-23T13:19:38.222Z,53.90
2022-12-23T13:21:10.477Z,60.13
2022-12-23T13:22:45.597Z,82.13
2022-12-23T13:24:37.160Z,69.25
2022-12-23T13:26:24.727Z,63.67
2022-12-23T13:27:59.418Z,81.40
2022-12-23T13:29:59.205Z,84.95
2022-12-23T13:31:59.185Z,74.18
2022-12-23T13:33:55.200Z,76.25
2022-12-23T13:36:01.225Z,137.85
2022-12-23T13:37:50.364Z,199.32
2022-12-23T13:39:22.442Z,115.10
2022-12-23T13:41:00.073Z,74.70
2022-12-23T13:42:42.130Z,90.78
2022-12-23T13:44:15.320Z,88.60
2022-12-23T13:45:49.005Z,80.82
2022-12-23T13:48:05.093Z,72.82
2022-12-23T13:49:40.282Z,71.35
2022-12-23T13:51:26.210Z,65.95
2022-12-23T13:53:18.707Z,64.50
2022-12-23T13:55:02.914Z,70.75
2022-12-23T13:56:35.259Z,69.78
2022-12-23T13:58:19.197Z,57.67
2022-12-23T14:00:19.084Z,70.93
2022-12-23T14:01:52.729Z,78.95
2022-12-23T14:03:32.758Z,73.43
2022-12-23T14:05:26.563Z,61.67
2022-12-23T14:08:42.086Z,50.65
2022-12-23T14:10:22.936Z,51.67
2022-12-23T14:11:59.580Z,63.17
2022-12-23T14:13:49.927Z,71.97
2022-12-23T14:15:42.996Z,50.53
2022-12-23T14:17:25.308Z,48.20
2022-12-23T14:19:29.603Z,58.35
2022-12-23T14:22:59.516Z,66.68
2022-12-23T14:24:37.498Z,68.07
2022-12-23T14:26:19.773Z,58.03
2022-12-23T14:28:33.726Z,71.85
2022-12-23T14:30:11.833Z,62.65
2022-12-23T14:31:47.895Z,57.63
2022-12-23T14:33:30.347Z,43.80
2022-12-23T14:35:20.563Z,42.13
2022-12-23T14:37:20.629Z,48.28
2022-12-23T14:39:11.396Z,45.75
2022-12-23T14:40:43.654Z,41.80
2022-12-23T14:42:34.772Z,49.97
2022-12-23T14:44:36.073Z,50.90
2022-12-23T14:46:48.387Z,47.78
2022-12-23T14:48:41.903Z,50.60
2022-12-23T14:50:35.289Z,46.15
2022-12-23T14:52:38.027Z,45.55
2022-12-23T14:54:18.329Z,46.10
2022-12-23T14:55:52.719Z,60.80
2022-12-23T14:57:29.819Z,46.47
2022-12-23T14:59:23.144Z,49.88
2022-12-23T15:01:12.590Z,58.05
2022-12-23T15:02:44.926Z,42.28
2022-12-23T15:04:22.269Z,60.20
2022-12-23T15:05:55.019Z,54.95
2022-12-23T15:07:46.616Z,58.97
2022-12-23T15:09:25.769Z,63.53
2022-12-23T15:10:58.708Z,74.50
2022-12-23T15:14:09.338Z,53.55
2022-12-23T15:15:57.396Z,66.53
2022-12-23T15:17:39.068Z,61.47
2022-12-23T15:19:44.015Z,54.15
2022-12-23T15:21:16.134Z,59.47
2022-12-23T15:22:49.575Z,61.60
2022-12-23T15:24:22.500Z,66.18
2022-12-23T15:26:00.643Z,64.72
2022-12-23T15:27:37.486Z,101.85
2022-12-23T15:29:10.223Z,76.13
2022-12-23T15:30:56.598Z,67.65
2022-12-23T15:32:29.704Z,108.60
2022-12-23T15:34:16.575Z,200.43
2022-12-23T15:35:49.794Z,145.50
2022-12-23T15:37:29.449Z,76.25
2022-12-23T15:39:03.327Z,118.32
2022-12-23T15:40:38.490Z,65.60
2022-12-23T15:42:27.847Z,73.78
2022-12-23T15:44:01.894Z,64.53
2022-12-23T15:45:39.928Z,64.07
2022-12-23T15:47:32.375Z,67.82
2022-12-23T15:49:05.318Z,58.92
2022-12-23T15:50:42.098Z,71.35
2022-12-23T15:52:20.097Z,59.15
2022-12-23T15:53:56.117Z,99.63
2022-12-23T15:55:31.069Z,62.63
2022-12-23T15:57:04.589Z,123.30
2022-12-23T15:58:40.404Z,97.40
2022-12-23T16:00:28.861Z,72.75
2022-12-23T16:03:00.330Z,111.28
2022-12-23T16:04:33.731Z,59.78
2022-12-23T16:06:15.917Z,37.53
2022-12-23T16:07:50.964Z,53.00
2022-12-23T16:09:31.525Z,58.55
2022-12-23T16:11:21.095Z,150.27
2022-12-23T16:12:53.264Z,136.25
2022-12-23T16:14:31.368Z,86.65
2022-12-23T16:16:40.733Z,88.93
2022-12-23T16:18:26.332Z,96.05
2022-12-23T16:20:50.098Z,65.32
2022-12-23T16:22:30.296Z,57.17
2022-12-23T16:24:08.592Z,55.75
2022-12-23T16:25:48.539Z,60.40
2022-12-23T16:27:41.639Z,47.25
2022-12-23T16:29:15.279Z,42.47
2022-12-23T16:30:49.629Z,55.40
2022-12-23T16:32:21.896Z,46.08
2022-12-23T16:33:58.633Z,58.30
2022-12-23T16:35:40.279Z,55.47
2022-12-23T16:37:12.478Z,80.43
2022-12-23T16:38:45.126Z,91.63
2022-12-23T16:40:17.777Z,56.55
2022-12-23T16:41:50.627Z,56.33
2022-12-23T16:43:24.499Z,188.40
2022-12-23T16:44:56.770Z,108.40
2022-12-23T16:46:34.241Z,67.63
2022-12-23T16:48:36.533Z,161.93
2022-12-23T16:50:14.401Z,126.20
2022-12-23T16:51:47.468Z,121.72
2022-12-23T16:53:20.770Z,92.00
2022-12-23T16:54:52.959Z,152.73
2022-12-23T16:56:29.948Z,124.85
2022-12-23T16:58:02.078Z,116.35
2022-12-23T16:59:34.236Z,118.28
2022-12-23T17:01:06.561Z,139.27
2022-12-23T17:02:38.742Z,87.30
2022-12-23T17:04:11.035Z,244.73
2022-12-23T17:05:44.090Z,49.17
2022-12-23T17:08:48.776Z,92.80
2022-12-23T17:10:20.983Z,142.07
2022-12-23T17:11:53.751Z,175.73
2022-12-23T17:13:25.860Z,191.82
2022-12-23T17:14:58.768Z,143.52
2022-12-23T17:16:31.334Z,111.35
2022-12-23T17:18:03.631Z,223.23
2022-12-23T17:19:35.743Z,250.05
2022-12-23T17:21:39.085Z,260.08
2022-12-23T17:23:26.787Z,311.83
2022-12-23T17:24:58.922Z,226.82
2022-12-23T17:26:31.145Z,289.00
2022-12-23T17:28:03.292Z,197.93
2022-12-23T17:29:35.467Z,363.02
2022-12-23T17:31:13.949Z,429.75
2022-12-23T17:32:54.764Z,303.17
2022-12-23T17:34:26.992Z,231.25
2022-12-23T17:36:00.072Z,90.50
2022-12-23T17:37:32.259Z,157.98
2022-12-23T17:39:04.663Z,146.20
2022-12-23T17:40:38.732Z,92.80
2022-12-23T17:42:23.271Z,106.90
2022-12-23T17:43:57.749Z,126.95
2022-12-23T17:45:31.118Z,205.63
2022-12-23T17:47:10.946Z,99.93
2022-12-23T17:48:43.798Z,63.75
2022-12-23T17:50:16.258Z,51.55
2022-12-23T17:51:48.669Z,55.10
2022-12-23T17:53:20.970Z,35.10
2022-12-23T17:54:53.757Z,49.72
2022-12-23T17:56:29.706Z,74.35
2022-12-23T17:58:02.720Z,122.57
2022-12-23T17:59:35.000Z,113.50
2022-12-23T18:01:13.527Z,44.70
2022-12-23T18:02:47.467Z,116.82
2022-12-23T18:04:20.920Z,73.43
2022-12-23T18:06:01.201Z,79.00
2022-12-23T18:07:34.924Z,306.50
2022-12-23T18:09:07.272Z,166.75
2022-12-23T18:10:40.885Z,111.63
2022-12-23T18:12:34.359Z,190.32
2022-12-23T18:14:08.221Z,102.13
2022-12-23T18:15:42.708Z,93.22
2022-12-23T18:17:16.380Z,132.07
2022-12-23T18:18:48.602Z,73.15
2022-12-23T18:20:23.174Z,49.13
2022-12-23T18:21:57.154Z,55.58
2022-12-23T18:23:32.160Z,42.10
2022-12-23T18:25:04.924Z,57.05
2022-12-23T18:26:37.570Z,49.63
2022-12-23T18:28:11.408Z,53.90
2022-12-23T18:29:44.985Z,45.17
2022-12-23T18:31:24.273Z,44.55
2022-12-23T18:32:57.127Z,40.65
2022-12-23T18:36:03.031Z,37.15
2022-12-23T18:37:38.300Z,34.75
2022-12-23T18:39:17.869Z,48.25
2022-12-23T18:40:53.996Z,32.97
2022-12-23T18:42:26.764Z,36.75
2022-12-23T18:43:59.749Z,42.30
2022-12-23T18:45:38.667Z,32.88
2022-12-23T18:47:12.281Z,31.75
2022-12-23T18:48:44.844Z,37.10
2022-12-23T18:50:17.368Z,31.95
2022-12-23T18:51:49.505Z,31.80
2022-12-23T18:53:24.977Z,36.40
2022-12-23T18:54:57.593Z,30.25
2022-12-23T18:56:29.832Z,38.70
2022-12-23T18:58:02.027Z,32.28
2022-12-23T18:59:37.623Z,27.27
2022-12-23T19:01:15.029Z,32.75
2022-12-23T19:02:48.571Z,33.50
2022-12-23T19:04:20.974Z,33.42
2022-12-23T19:05:54.389Z,34.80
2022-12-23T19:07:26.939Z,30.88
2022-12-23T19:08:59.147Z,26.23
2022-12-23T19:10:34.110Z,26.90
2022-12-23T19:12:06.710Z,30.33
2022-12-23T19:13:38.910Z,25.88
2022-12-23T19:15:11.531Z,30.42
2022-12-23T19:16:49.267Z,30.00
2022-12-23T19:18:23.869Z,25.00
2022-12-23T19:19:58.391Z,27.58
2022-12-23T19:21:30.502Z,28.40
2022-12-23T19:23:02.667Z,33.75
2022-12-23T19:24:34.763Z,37.70
2022-12-23T19:26:11.064Z,34.08
2022-12-23T19:27:44.116Z,37.75
2022-12-23T19:29:16.865Z,40.78
2022-12-23T19:30:49.343Z,52.78
2022-12-23T19:32:24.994Z,51.15
2022-12-23T19:33:57.354Z,52.63
2022-12-23T19:35:29.533Z,51.03
2022-12-23T19:37:01.691Z,48.72
2022-12-23T19:38:33.941Z,71.20
2022-12-23T19:40:06.955Z,58.35
2022-12-23T19:43:11.043Z,50.17
2022-12-23T19:44:43.324Z,39.35
2022-12-23T19:46:16.505Z,40.58
2022-12-23T19:47:48.733Z,51.50
2022-12-23T19:49:20.865Z,39.70
2022-12-23T19:51:00.396Z,48.70
2022-12-23T19:52:33.246Z,38.15
2022-12-23T19:55:37.439Z,42.70
2022-12-23T19:57:09.578Z,31.98
2022-12-23T19:58:43.256Z,38.53
2022-12-23T20:00:16.087Z,39.15
2022-12-23T20:01:48.919Z,41.05
2022-12-23T20:03:21.133Z,42.40
2022-12-23T20:04:53.618Z,34.45
2022-12-23T20:06:33.251Z,37.63
2022-12-23T20:08:05.689Z,37.42
2022-12-23T20:09:38.749Z,34.17
2022-12-23T20:11:15.374Z,30.85
2022-12-23T20:12:47.523Z,32.72
2022-12-23T20:14:21.745Z,38.78
2022-12-23T20:15:54.129Z,34.50
2022-12-23T20:17:29.158Z,31.48
2022-12-23T20:19:01.604Z,31.65
2022-12-23T20:20:33.809Z,34.83
2022-12-23T20:22:06.471Z,26.67
2022-12-23T20:23:38.819Z,29.58
2022-12-23T20:25:10.884Z,30.50
2022-12-23T20:26:43.943Z,27.88
2022-12-23T20:28:16.501Z,24.88
2022-12-23T20:29:49.021Z,26.00
2022-12-23T20:31:26.437Z,20.70
2022-12-23T20:32:59.110Z,24.02
2022-12-23T20:34:36.711Z,22.85
2022-12-23T20:36:13.161Z,29.88
2022-12-23T20:37:45.570Z,25.15
2022-12-23T20:39:17.709Z,36.28
2022-12-23T20:40:49.907Z,22.83
2022-12-23T20:42:22.165Z,24.80
2022-12-23T20:44:31.604Z,28.25
2022-12-23T20:45:46.723Z,28.58
2022-12-23T20:47:18.921Z,28.05
2022-12-23T20:48:51.678Z,33.75
2022-12-23T20:50:26.442Z,27.13
2022-12-23T20:51:58.584Z,26.60
2022-12-23T20:53:30.947Z,32.15
2022-12-23T20:55:03.191Z,27.13
2022-12-23T20:56:35.595Z,31.38
2022-12-23T20:58:30.685Z,35.05
2022-12-23T21:00:05.006Z,28.70
2022-12-23T21:01:39.780Z,28.77
2022-12-23T21:03:12.008Z,27.95
2022-12-23T21:04:44.453Z,28.92
2022-12-23T21:06:16.609Z,28.55
2022-12-23T21:07:48.680Z,21.73
2022-12-23T21:09:21.005Z,30.33
2022-12-23T21:10:57.749Z,27.58
2022-12-23T21:12:29.967Z,35.92
2022-12-23T21:14:06.677Z,40.55
2022-12-23T21:15:39.510Z,27.77
2022-12-23T21:17:11.708Z,26.70
2022-12-23T21:18:46.101Z,32.20
2022-12-23T21:20:18.211Z,30.50
2022-12-23T21:21:51.461Z,35.75
2022-12-23T21:23:23.535Z,25.35
2022-12-23T21:24:55.741Z,31.05
2022-12-23T21:26:29.551Z,24.98
2022-12-23T21:28:01.682Z,24.75
2022-12-23T21:29:33.818Z,38.23
2022-12-23T21:31:06.732Z,29.63
2022-12-23T21:32:38.818Z,27.60
2022-12-23T21:34:18.025Z,24.65
2022-12-23T21:35:50.116Z,25.85
2022-12-23T21:37:22.251Z,23.20
2022-12-23T21:38:54.822Z,55.20
2022-12-23T21:40:27.296Z,30.75
2022-12-23T21:41:59.370Z,22.25
2022-12-23T21:43:31.883Z,25.70
2022-12-23T21:45:04.673Z,28.08
2022-12-23T21:46:36.963Z,23.50
2022-12-23T21:48:09.045Z,27.38
2022-12-23T21:49:42.513Z,32.67
2022-12-23T21:51:17.637Z,27.63
2022-12-23T21:52:49.777Z,32.63
2022-12-23T21:54:21.852Z,35.92
2022-12-23T21:55:54.041Z,26.20
2022-12-23T21:57:26.185Z,29.75
2022-12-23T21:59:03.968Z,33.08
2022-12-23T22:00:36.106Z,32.63
2022-12-23T22:02:15.572Z,32.03
2022-12-23T22:03:49.419Z,31.17
2022-12-23T22:05:21.852Z,22.77
2022-12-23T22:06:53.947Z,31.58
2022-12-23T22:08:26.314Z,44.95
2022-12-23T22:09:58.466Z,41.72
2022-12-23T22:11:33.425Z,31.75
2022-12-23T22:13:05.687Z,30.33
2022-12-23T22:14:37.959Z,42.70
2022-12-23T22:16:12.489Z,31.33
2022-12-23T22:17:44.768Z,36.67
2022-12-23T22:19:18.070Z,51.53
2022-12-23T22:20:50.331Z,45.85
2022-12-23T22:22:22.439Z,44.67
2022-12-23T22:23:55.656Z,41.35
2022-12-23T22:25:27.899Z,51.05
2022-12-23T22:26:59.985Z,53.70
2022-12-23T22:28:33.663Z,51.13
2022-12-23T22:30:06.618Z,47.17
2022-12-23T22:31:49.400Z,36.10
2022-12-23T22:33:21.583Z,47.17
2022-12-23T22:34:53.752Z,38.75
2022-12-23T22:36:26.240Z,44.30
2022-12-23T22:37:59.205Z,35.20
2022-12-23T22:41:03.654Z,36.15
2022-12-23T22:42:35.836Z,42.95
2022-12-23T22:44:09.794Z,39.07
2022-12-23T22:45:42.120Z,33.15
2022-12-23T22:47:14.433Z,44.35
2022-12-23T22:48:46.919Z,29.63
2022-12-23T22:50:18.968Z,29.88
2022-12-23T22:51:51.093Z,35.27
2022-12-23T22:53:29.335Z,32.63
2022-12-23T22:55:02.043Z,24.42
2022-12-23T22:56:34.169Z,28.67
2022-12-23T22:58:06.339Z,34.22
2022-12-23T22:59:38.455Z,30.57
2022-12-23T23:01:23.655Z,27.08
2022-12-23T23:02:55.724Z,20.85
2022-12-23T23:04:27.868Z,21.45
2022-12-23T23:06:01.468Z,26.90
2022-12-23T23:07:33.744Z,24.50
2022-12-23T23:09:08.600Z,25.83
2022-12-23T23:10:40.720Z,20.95
2022-12-23T23:12:12.872Z,25.38
2022-12-23T23:13:45.130Z,23.35
2022-12-23T23:15:17.251Z,26.88
2022-12-23T23:16:49.545Z,30.40
2022-12-23T23:18:22.812Z,28.85
2022-12-23T23:19:55.457Z,21.30
2022-12-23T23:21:27.750Z,25.38
2022-12-23T23:22:59.875Z,28.30
2022-12-23T23:24:32.033Z,22.27
2022-12-23T23:26:05.208Z,28.85
2022-12-23T23:27:37.315Z,27.38
2022-12-23T23:29:09.454Z,26.20
2022-12-23T23:30:41.635Z,21.07
2022-12-23T23:32:13.860Z,27.90
2022-12-23T23:33:46.056Z,24.50
2022-12-23T23:35:18.415Z,29.25
2022-12-23T23:36:50.556Z,21.42
2022-12-23T23:38:23.299Z,25.20
2022-12-23T23:39:55.411Z,24.75
2022-12-23T23:41:27.652Z,25.17
2022-12-23T23:42:59.876Z,31.30
2022-12-23T23:44:32.092Z,23.95
2022-12-23T23:46:04.373Z,28.98
2022-12-23T23:47:36.597Z,23.38
2022-12-23T23:49:08.763Z,33.22
2022-12-23T23:50:41.094Z,26.20
2022-12-23T23:52:13.280Z,31.63
2022-12-23T23:53:45.639Z,40.22
2022-12-23T23:55:17.967Z,34.70
2022-12-23T23:56:50.165Z,31.80
2022-12-23T23:58:22.333Z,40.45
2022-12-23T23:59:54.526Z,35.28
